Time;durP1;ratioP1;P1;durP2;ratioP2;P2;SDS_P1;SDS_P2;PMS_P1;PMS_P2;Temp;Humidity;BMP_temperature;BMP_pressure;BME280_temperature;BME280_humidity;BME280_pressure;Samples;Min_cycle;Max_cycle;Signal;HPM_P1;HPM_P2
2023/09/19 00:01:08;;;;;;;1.00;0.20;;;17.90;21.20;;;;;;5133442;27;20410;-59
2023/09/19 00:03:37;;;;;;;1.10;0.17;;;17.90;25.60;;;;;;5133502;27;20445;-60
2023/09/19 00:06:07;;;;;;;0.40;0.20;;;18.00;26.00;;;;;;5134476;27;20429;-60
2023/09/19 00:08:34;;;;;;;0.82;0.20;;;18.00;19.60;;;;;;5135911;27;20683;-59
2023/09/19 00:11:05;;;;;;;0.40;0.20;;;17.90;22.40;;;;;;5136084;27;20424;-59
2023/09/19 00:13:33;;;;;;;2.20;0.20;;;18.00;32.70;;;;;;5136429;27;20448;-59
2023/09/19 00:16:01;;;;;;;1.20;0.20;;;18.00;21.90;;;;;;5134919;27;20433;-58
2023/09/19 00:18:32;;;;;;;0.40;0.20;;;18.00;23.80;;;;;;5135461;27;20430;-59
2023/09/19 00:20:59;;;;;;;0.40;0.20;;;18.00;34.10;;;;;;5136213;27;20834;-59
2023/09/19 00:23:28;;;;;;;0.40;0.20;;;18.00;20.70;;;;;;5136428;27;20476;-59
2023/09/19 00:25:59;;;;;;;0.40;0.20;;;18.00;25.10;;;;;;5136078;27;20410;-59
2023/09/19 00:28:26;;;;;;;0.40;0.20;;;17.90;20.00;;;;;;5136100;27;20904;-60
2023/09/19 00:30:55;;;;;;;0.57;0.20;;;17.90;35.10;;;;;;5136901;27;20428;-58
2023/09/19 00:33:24;;;;;;;0.50;0.20;;;17.90;30.70;;;;;;5136772;27;20433;-59
2023/09/19 00:35:52;;;;;;;0.80;0.20;;;17.80;34.10;;;;;;5136266;27;20418;-60
2023/09/19 00:38:22;;;;;;;0.45;0.20;;;17.70;52.60;;;;;;5136568;27;20430;-60
2023/09/19 00:40:52;;;;;;;0.60;0.20;;;17.80;62.30;;;;;;5135938;27;20411;-59
2023/09/19 00:43:19;;;;;;;0.50;0.20;;;17.80;46.60;;;;;;5135585;27;20423;-58
2023/09/19 00:45:48;;;;;;;0.40;0.20;;;17.80;41.80;;;;;;5135660;27;20424;-61
2023/09/19 00:48:16;;;;;;;0.40;0.20;;;17.80;59.50;;;;;;5136388;27;20912;-60
2023/09/19 00:50:44;;;;;;;0.40;0.20;;;17.70;43.10;;;;;;5136421;27;20418;-58
2023/09/19 00:53:15;;;;;;;0.70;0.20;;;17.80;50.40;;;;;;5136401;27;20460;-59
2023/09/19 00:55:43;;;;;;;0.40;0.20;;;17.70;48.50;;;;;;5136028;27;20419;-60
2023/09/19 00:58:12;;;;;;;0.73;0.20;;;17.80;57.00;;;;;;5135730;27;20438;-59
2023/09/19 01:00:44;;;;;;;0.40;0.20;;;17.90;49.30;;;;;;5136079;27;20426;-59
2023/09/19 01:03:13;;;;;;;0.40;0.20;;;17.90;42.30;;;;;;5135809;27;20423;-59
2023/09/19 01:05:40;;;;;;;0.80;0.20;;;17.90;39.30;;;;;;5135708;27;20482;-58
2023/09/19 01:08:08;;;;;;;0.80;0.20;;;17.80;30.00;;;;;;5135926;27;20472;-58
2023/09/19 01:10:36;;;;;;;0.57;0.20;;;17.70;38.10;;;;;;5134352;27;20771;-58
2023/09/19 01:13:16;;;;;;;1.10;0.20;;;17.60;53.60;;;;;;5131069;27;20455;-58
2023/09/19 01:15:52;;;;;;;0.55;0.20;;;17.60;52.40;;;;;;5133539;27;20414;-58
2023/09/19 01:18:34;;;;;;;0.40;0.20;;;17.60;50.70;;;;;;5134240;27;20867;-63
2023/09/19 01:21:10;;;;;;;0.40;0.20;;;17.60;56.30;;;;;;5134158;27;20422;-58
2023/09/19 01:24:15;;;;;;;0.53;0.10;;;17.60;72.10;;;;;;5134511;27;20418;-58
2023/09/19 01:27:15;;;;;;;0.40;0.20;;;17.70;48.00;;;;;;5135222;27;20516;-59
2023/09/19 01:29:46;;;;;;;0.82;0.20;;;17.70;41.50;;;;;;5135163;27;20753;-60
2023/09/19 01:32:17;;;;;;;0.70;0.20;;;17.70;50.20;;;;;;5135876;27;20422;-58
2023/09/19 01:34:50;;;;;;;0.50;0.20;;;17.80;32.10;;;;;;5139406;27;20407;-59
2023/09/19 01:37:20;;;;;;;0.30;0.20;;;17.80;16.10;;;;;;5138636;27;20403;-60
2023/09/19 01:39:49;;;;;;;0.40;0.20;;;17.80;5.40;;;;;;5140152;27;20426;-59
2023/09/19 01:42:30;;;;;;;0.50;0.20;;;17.80;9.40;;;;;;5139749;27;20725;-60
2023/09/19 01:45:05;;;;;;;1.10;0.20;;;17.80;5.90;;;;;;5139583;27;20422;-59
2023/09/19 01:47:38;;;;;;;0.30;0.10;;;17.80;1.00;;;;;;5139428;27;20423;-59
2023/09/19 01:50:16;;;;;;;0.40;0.20;;;17.90;1.00;;;;;;5139250;27;20846;-59
2023/09/19 01:52:49;;;;;;;0.40;0.10;;;17.90;1.00;;;;;;5139557;27;20752;-59
2023/09/19 01:55:18;;;;;;;0.60;0.20;;;17.90;1.00;;;;;;5137672;27;20418;-58
2023/09/19 01:57:55;;;;;;;1.30;0.20;;;18.00;1.00;;;;;;5137856;27;20427;-58
2023/09/19 02:00:23;;;;;;;0.40;0.20;;;17.90;1.00;;;;;;5137934;27;20419;-59
2023/09/19 02:02:55;;;;;;;0.35;0.20;;;17.90;1.00;;;;;;5138061;27;20418;-58
2023/09/19 02:05:27;;;;;;;0.40;0.10;;;17.90;1.00;;;;;;5138211;27;20423;-58
2023/09/19 02:07:55;;;;;;;0.50;0.20;;;17.90;1.00;;;;;;5137572;27;20411;-59
2023/09/19 02:10:23;;;;;;;0.40;0.20;;;17.90;1.00;;;;;;5139184;27;20415;-58
2023/09/19 02:12:51;;;;;;;0.40;0.20;;;17.80;1.00;;;;;;5139530;27;20418;-59
2023/09/19 02:15:18;;;;;;;0.40;0.20;;;17.70;1.00;;;;;;5138491;27;20425;-60
2023/09/19 02:17:45;;;;;;;0.60;0.20;;;17.70;1.00;;;;;;5137761;27;20430;-59
2023/09/19 02:20:16;;;;;;;0.70;0.20;;;17.70;1.00;;;;;;5138976;27;20418;-60
2023/09/19 02:22:44;;;;;;;0.47;0.20;;;17.60;1.00;;;;;;5139036;27;20422;-60
2023/09/19 02:25:13;;;;;;;0.30;0.20;;;17.60;1.00;;;;;;5138816;27;20410;-59
2023/09/19 02:27:40;;;;;;;0.30;0.10;;;17.50;1.00;;;;;;5138415;27;20450;-59
2023/09/19 02:30:08;;;;;;;0.40;0.20;;;17.50;3.70;;;;;;5138654;27;20425;-59
2023/09/19 02:32:38;;;;;;;0.40;0.20;;;17.50;5.60;;;;;;5138696;27;20419;-59
2023/09/19 02:35:08;;;;;;;0.43;0.20;;;17.60;11.50;;;;;;5138742;27;20426;-59
2023/09/19 02:37:36;;;;;;;0.40;0.10;;;17.50;1.00;;;;;;5138275;27;20493;-60
2023/09/19 02:40:18;;;;;;;0.47;0.20;;;17.40;4.30;;;;;;5138499;27;20410;-59
2023/09/19 02:42:48;;;;;;;0.50;0.20;;;17.30;14.10;;;;;;5138727;27;20896;-58
2023/09/19 02:45:17;;;;;;;0.40;0.10;;;17.20;23.60;;;;;;5138399;27;20423;-58
2023/09/19 02:47:44;;;;;;;0.40;0.20;;;17.20;33.10;;;;;;5136411;27;20445;-59
2023/09/19 02:50:12;;;;;;;0.40;0.20;;;17.10;40.00;;;;;;5136662;27;20509;-60
2023/09/19 02:52:43;;;;;;;0.70;0.20;;;17.10;47.10;;;;;;5136548;27;20494;-60
2023/09/19 02:55:10;;;;;;;0.50;0.30;;;17.00;41.30;;;;;;5135770;27;20415;-60
2023/09/19 02:57:40;;;;;;;0.47;0.20;;;17.00;53.00;;;;;;5136807;27;20410;-60
2023/09/19 03:00:10;;;;;;;0.57;0.20;;;17.10;49.80;;;;;;5136477;27;20440;-60
2023/09/19 03:02:37;;;;;;;0.50;0.20;;;17.10;43.70;;;;;;5135770;27;20475;-60
2023/09/19 03:05:07;;;;;;;0.30;0.10;;;17.10;46.00;;;;;;5138170;27;20895;-59
2023/09/19 03:07:34;;;;;;;0.60;0.20;;;17.10;48.30;;;;;;5137794;27;20434;-58
2023/09/19 03:10:03;;;;;;;0.40;0.20;;;17.20;40.00;;;;;;5138336;27;20418;-59
2023/09/19 03:12:31;;;;;;;0.40;0.20;;;17.20;39.50;;;;;;5137976;27;20443;-59
2023/09/19 03:14:59;;;;;;;0.47;0.20;;;17.20;38.50;;;;;;5137123;27;20448;-59
2023/09/19 03:17:27;;;;;;;0.47;0.20;;;17.20;32.60;;;;;;5131354;27;20424;-59
2023/09/19 03:19:54;;;;;;;0.40;0.10;;;17.20;35.70;;;;;;5117235;28;20434;-60
2023/09/19 03:22:22;;;;;;;0.40;0.20;;;17.30;31.90;;;;;;5115133;28;20413;-61
2023/09/19 03:24:49;;;;;;;0.90;0.20;;;17.30;27.30;;;;;;5114154;28;20786;-59
2023/09/19 03:27:17;;;;;;;1.17;0.20;;;17.30;23.00;;;;;;5113564;28;20903;-60
2023/09/19 03:29:45;;;;;;;0.45;0.20;;;17.30;30.90;;;;;;5113551;28;20416;-60
2023/09/19 03:32:12;;;;;;;0.45;0.20;;;17.40;29.40;;;;;;5113916;28;20438;-60
2023/09/19 03:34:42;;;;;;;0.50;0.20;;;17.40;22.50;;;;;;5113756;28;20489;-60
2023/09/19 03:37:10;;;;;;;0.40;0.20;;;17.40;28.80;;;;;;5115453;28;20423;-60
2023/09/19 03:39:37;;;;;;;0.40;0.20;;;17.50;25.60;;;;;;5116085;28;20519;-59
2023/09/19 03:42:06;;;;;;;0.40;0.20;;;17.50;21.40;;;;;;5116773;28;20503;-61
2023/09/19 03:44:35;;;;;;;0.40;0.20;;;17.60;15.90;;;;;;5130668;27;20466;-59
2023/09/19 03:47:04;;;;;;;0.30;0.20;;;17.60;17.70;;;;;;5137529;27;20422;-60
2023/09/19 03:49:31;;;;;;;0.60;0.20;;;17.60;13.60;;;;;;5136898;27;20421;-59
2023/09/19 03:51:58;;;;;;;0.40;0.20;;;17.60;24.60;;;;;;5137218;27;20429;-60
2023/09/19 03:54:26;;;;;;;0.40;0.20;;;17.60;20.60;;;;;;5136302;27;20447;-60
2023/09/19 03:56:53;;;;;;;0.40;0.20;;;17.60;19.40;;;;;;5135227;27;20829;-59
2023/09/19 03:59:20;;;;;;;0.80;0.20;;;17.60;19.50;;;;;;5134118;27;20426;-62
2023/09/19 04:01:50;;;;;;;0.40;0.20;;;17.60;10.50;;;;;;5133647;27;20406;-60
2023/09/19 04:04:18;;;;;;;0.40;0.20;;;17.50;13.70;;;;;;5133823;27;20428;-55
2023/09/19 04:06:45;;;;;;;1.20;0.20;;;17.60;9.30;;;;;;5133580;27;20442;-57
2023/09/19 04:09:13;;;;;;;0.40;0.20;;;17.50;9.20;;;;;;5134825;27;20759;-57
2023/09/19 04:11:40;;;;;;;0.40;0.20;;;17.60;7.20;;;;;;5134322;27;20711;-59
2023/09/19 04:14:07;;;;;;;0.40;0.20;;;17.60;1.90;;;;;;5133644;27;20423;-58
2023/09/19 04:16:34;;;;;;;0.50;0.20;;;17.70;8.50;;;;;;5134279;27;20856;-50
2023/09/19 04:19:03;;;;;;;0.50;0.20;;;17.80;1.00;;;;;;5134123;27;20462;-57
2023/09/19 04:21:30;;;;;;;0.50;0.30;;;17.80;99.90;;;;;;5135884;27;20508;-51
2023/09/19 04:23:58;;;;;;;0.40;0.20;;;17.80;1.00;;;;;;5136391;27;20433;-54
2023/09/19 04:26:26;;;;;;;0.50;0.22;;;17.80;1.00;;;;;;5134646;27;20436;-59
2023/09/19 04:28:53;;;;;;;0.90;0.20;;;17.70;2.80;;;;;;5133880;27;20853;-57
2023/09/19 04:31:21;;;;;;;0.60;0.30;;;17.70;3.90;;;;;;5133747;27;20410;-57
2023/09/19 04:33:48;;;;;;;2.20;0.20;;;17.60;17.00;;;;;;5135145;27;20722;-56
2023/09/19 04:36:17;;;;;;;0.43;0.22;;;17.50;25.40;;;;;;5133744;27;20471;-59
2023/09/19 04:38:44;;;;;;;0.40;0.20;;;17.50;35.10;;;;;;5132991;27;20479;-57
2023/09/19 04:41:11;;;;;;;0.57;0.30;;;17.50;38.40;;;;;;5132508;27;20833;-59
2023/09/19 04:43:38;;;;;;;0.45;0.20;;;17.40;44.40;;;;;;5133694;27;20442;-59
2023/09/19 04:46:06;;;;;;;0.40;0.20;;;17.40;53.00;;;;;;5134581;27;20426;-59
2023/09/19 04:48:34;;;;;;;0.40;0.20;;;17.40;60.80;;;;;;5134770;27;20728;-58
2023/09/19 04:51:01;;;;;;;0.40;0.20;;;17.50;54.70;;;;;;5132349;27;20429;-59
2023/09/19 04:53:30;;;;;;;1.40;0.20;;;17.50;55.70;;;;;;5132223;27;20426;-60
2023/09/19 04:55:57;;;;;;;0.60;0.30;;;17.50;60.60;;;;;;5131321;27;20533;-54
2023/09/19 04:58:25;;;;;;;0.40;0.20;;;17.40;92.60;;;;;;5131987;27;20945;-52
2023/09/19 05:00:52;;;;;;;0.50;0.20;;;17.30;99.90;;;;;;5133341;27;20418;-52
2023/09/19 05:03:20;;;;;;;0.52;0.20;;;17.20;99.90;;;;;;5134013;27;20430;-55
2023/09/19 05:05:47;;;;;;;0.40;0.20;;;17.30;99.90;;;;;;5134648;27;20543;-54
2023/09/19 05:08:14;;;;;;;0.50;0.23;;;17.60;99.90;;;;;;5134935;27;20467;-55
2023/09/19 05:10:42;;;;;;;0.60;0.20;;;17.60;99.90;;;;;;5139480;27;20414;-53
2023/09/19 05:13:10;;;;;;;0.50;0.30;;;17.60;99.90;;;;;;5139809;27;20414;-51
2023/09/19 05:15:37;;;;;;;0.80;0.20;;;17.60;99.90;;;;;;5138676;27;20512;-52
2023/09/19 05:18:06;;;;;;;0.55;0.20;;;17.60;99.90;;;;;;5138245;27;20444;-49
2023/09/19 05:20:36;;;;;;;0.40;0.20;;;17.50;99.90;;;;;;5137133;27;20444;-53
2023/09/19 05:23:07;;;;;;;0.40;0.20;;;17.50;99.90;;;;;;5138944;27;20449;-48
2023/09/19 05:25:37;;;;;;;0.60;0.22;;;17.30;99.90;;;;;;5136952;27;20829;-55
2023/09/19 05:28:07;;;;;;;0.85;0.20;;;17.20;99.90;;;;;;5136990;27;20769;-55
2023/09/19 05:30:35;;;;;;;0.40;0.20;;;17.10;99.90;;;;;;5137584;27;20512;-54
2023/09/19 05:33:04;;;;;;;0.40;0.30;;;17.20;99.90;;;;;;5137615;27;20426;-53
2023/09/19 05:35:31;;;;;;;0.50;0.20;;;17.10;99.90;;;;;;5136363;27;20418;-54
2023/09/19 05:37:59;;;;;;;0.50;0.20;;;17.10;99.90;;;;;;5135462;27;20426;-54
2023/09/19 05:40:27;;;;;;;0.40;0.20;;;17.00;99.90;;;;;;5134676;27;20555;-52
2023/09/19 05:42:54;;;;;;;0.50;0.20;;;17.00;99.90;;;;;;5135729;27;20511;-53
2023/09/19 05:45:23;;;;;;;0.80;0.22;;;17.00;99.90;;;;;;5135995;27;20428;-53
2023/09/19 05:47:50;;;;;;;0.50;0.20;;;17.20;99.90;;;;;;5136795;27;20479;-54
2023/09/19 05:50:18;;;;;;;0.50;0.20;;;17.30;99.90;;;;;;5134897;27;20722;-55
2023/09/19 05:52:53;;;;;;;0.50;0.30;;;17.30;99.90;;;;;;5134097;27;20406;-53
2023/09/19 05:55:20;;;;;;;0.40;0.20;;;17.40;99.90;;;;;;5135220;27;20413;-50
2023/09/19 05:57:52;;;;;;;0.40;0.20;;;17.50;99.90;;;;;;5135521;27;20478;-54
2023/09/19 06:00:22;;;;;;;0.30;0.20;;;17.60;99.90;;;;;;5135918;27;20434;-55
2023/09/19 06:02:52;;;;;;;0.68;0.20;;;17.50;99.90;;;;;;5135344;27;20559;-54
2023/09/19 06:05:19;;;;;;;0.50;0.20;;;17.30;99.90;;;;;;5136282;27;20422;-51
2023/09/19 06:07:47;;;;;;;0.52;0.20;;;17.20;99.90;;;;;;5136894;27;20411;-55
2023/09/19 06:10:14;;;;;;;0.50;0.20;;;17.20;99.90;;;;;;5135127;27;20442;-55
2023/09/19 06:12:43;;;;;;;0.52;0.20;;;17.20;99.90;;;;;;5136851;27;20472;-55
2023/09/19 06:15:14;;;;;;;0.70;0.20;;;17.20;99.90;;;;;;5135468;27;20452;-52
2023/09/19 06:17:42;;;;;;;1.10;0.20;;;17.40;99.90;;;;;;5134405;27;20730;-49
2023/09/19 06:20:14;;;;;;;0.60;0.30;;;17.30;99.90;;;;;;5133318;27;20418;-56
2023/09/19 06:22:42;;;;;;;0.57;0.30;;;17.30;99.90;;;;;;5135093;27;20411;-54
2023/09/19 06:25:11;;;;;;;0.50;0.30;;;17.30;99.90;;;;;;5136255;27;20406;-53
2023/09/19 06:27:42;;;;;;;1.00;0.30;;;17.30;99.90;;;;;;5135778;27;20490;-52
2023/09/19 06:30:11;;;;;;;1.30;0.20;;;17.30;99.90;;;;;;5135679;27;20752;-52
2023/09/19 06:32:38;;;;;;;0.40;0.20;;;17.30;99.90;;;;;;5136033;27;20796;-55
2023/09/19 06:35:08;;;;;;;1.00;0.20;;;17.40;99.90;;;;;;5138710;27;20489;-50
2023/09/19 06:37:38;;;;;;;0.60;0.30;;;17.30;99.90;;;;;;5135964;27;20425;-55
2023/09/19 06:40:08;;;;;;;0.50;0.30;;;17.40;99.90;;;;;;5127944;27;20441;-54
2023/09/19 06:42:36;;;;;;;0.60;0.30;;;17.50;99.90;;;;;;5137575;27;20821;-54
2023/09/19 06:45:05;;;;;;;0.60;0.20;;;17.60;99.90;;;;;;5136881;27;20438;-52
2023/09/19 06:47:32;;;;;;;0.80;0.30;;;17.70;99.90;;;;;;5136417;27;20718;-53
2023/09/19 06:50:02;;;;;;;0.93;0.30;;;17.70;99.90;;;;;;5135364;27;20426;-55
2023/09/19 06:52:29;;;;;;;0.60;0.30;;;17.70;99.90;;;;;;5134873;27;20423;-52
2023/09/19 06:54:58;;;;;;;0.70;0.30;;;17.80;90.90;;;;;;5134103;27;20422;-53
2023/09/19 06:57:25;;;;;;;0.70;0.30;;;17.70;99.40;;;;;;5131365;27;21033;-54
2023/09/19 06:59:52;;;;;;;0.63;0.30;;;17.80;79.20;;;;;;5132858;27;20674;-50
2023/09/19 07:02:21;;;;;;;0.57;0.30;;;17.90;78.20;;;;;;5133670;27;20411;-53
2023/09/19 07:04:49;;;;;;;0.40;0.20;;;17.90;86.20;;;;;;5133588;27;20429;-55
2023/09/19 07:07:16;;;;;;;0.88;0.30;;;17.90;62.90;;;;;;5133892;27;20805;-54
2023/09/19 07:09:48;;;;;;;0.60;0.30;;;17.70;57.00;;;;;;5134384;27;20775;-55
2023/09/19 07:12:17;;;;;;;0.90;0.30;;;17.60;81.10;;;;;;5132920;27;20600;-52
2023/09/19 07:14:45;;;;;;;0.55;0.30;;;17.60;87.80;;;;;;5133856;27;20759;-51
2023/09/19 07:17:12;;;;;;;0.57;0.30;;;17.50;85.80;;;;;;5132437;27;20399;-54
2023/09/19 07:19:40;;;;;;;1.30;0.30;;;17.60;99.10;;;;;;5135454;27;20522;-55
2023/09/19 07:22:07;;;;;;;0.60;0.30;;;17.50;95.50;;;;;;5134377;27;20422;-55
2023/09/19 07:24:36;;;;;;;0.80;0.30;;;17.50;88.50;;;;;;5132991;27;20430;-55
2023/09/19 07:27:05;;;;;;;0.80;0.30;;;17.50;99.90;;;;;;5125722;27;20422;-55
2023/09/19 07:29:33;;;;;;;0.60;0.30;;;17.70;99.90;;;;;;5135864;27;20883;-51
2023/09/19 07:32:01;;;;;;;0.50;0.30;;;17.70;83.00;;;;;;5133417;27;20715;-51
2023/09/19 07:34:28;;;;;;;1.00;0.30;;;17.90;59.50;;;;;;5130343;27;20521;-55
2023/09/19 07:36:55;;;;;;;0.90;0.30;;;18.00;66.30;;;;;;5131559;27;20418;-52
2023/09/19 07:39:22;;;;;;;0.57;0.28;;;18.20;12.40;;;;;;5129780;27;20427;-53
2023/09/19 07:41:49;;;;;;;0.80;0.30;;;18.30;1.00;;;;;;5131280;27;20981;-53
2023/09/19 07:44:17;;;;;;;0.80;0.30;;;18.30;1.00;;;;;;5132773;27;20411;-55
2023/09/19 07:46:45;;;;;;;0.60;0.30;;;18.30;1.00;;;;;;5133913;27;20426;-54
2023/09/19 07:49:12;;;;;;;1.10;0.30;;;18.20;1.00;;;;;;5132110;27;20410;-56
2023/09/19 07:51:40;;;;;;;0.70;0.30;;;18.10;14.50;;;;;;5133560;27;20497;-53
2023/09/19 07:54:08;;;;;;;0.60;0.30;;;18.10;17.40;;;;;;5134194;27;20508;-54
2023/09/19 07:56:35;;;;;;;0.60;0.30;;;18.10;31.50;;;;;;5134292;27;20415;-54
2023/09/19 07:59:02;;;;;;;1.60;0.30;;;18.20;15.70;;;;;;5134010;27;20494;-55
2023/09/19 08:01:29;;;;;;;0.60;0.30;;;18.30;1.00;;;;;;5132917;27;20422;-51
2023/09/19 08:03:58;;;;;;;0.60;0.30;;;18.20;1.00;;;;;;5134155;27;20486;-54
2023/09/19 08:06:30;;;;;;;0.50;0.30;;;18.20;21.50;;;;;;5132226;27;20502;-52
2023/09/19 08:08:58;;;;;;;0.57;0.30;;;18.10;2.20;;;;;;5108459;27;20454;-54
2023/09/19 08:11:25;;;;;;;0.50;0.30;;;18.20;22.50;;;;;;5104763;27;20857;-55
2023/09/19 08:13:52;;;;;;;0.50;0.30;;;18.00;1.00;;;;;;5112880;27;20424;-52
2023/09/19 08:16:22;;;;;;;0.40;0.22;;;18.00;1.00;;;;;;5112243;27;20445;-55
2023/09/19 08:18:54;;;;;;;0.40;0.20;;;18.00;17.70;;;;;;5101366;28;20499;-54
2023/09/19 08:21:23;;;;;;;0.70;0.30;;;18.00;5.70;;;;;;5112673;28;20873;-52
2023/09/19 08:23:51;;;;;;;0.57;0.30;;;18.10;4.30;;;;;;5110314;28;20703;-54
2023/09/19 08:26:19;;;;;;;0.60;0.30;;;18.20;1.00;;;;;;5111487;27;20678;-53
2023/09/19 08:28:48;;;;;;;0.70;0.30;;;18.20;1.00;;;;;;5115161;27;20618;-54
2023/09/19 08:31:16;;;;;;;0.65;0.20;;;18.50;1.00;;;;;;5127493;27;20488;-51
2023/09/19 08:33:51;;;;;;;0.52;0.22;;;18.70;1.00;;;;;;5100959;27;20436;-51
2023/09/19 08:36:18;;;;;;;0.40;0.20;;;18.90;1.00;;;;;;5104883;28;20438;-51
2023/09/19 08:38:49;;;;;;;0.80;0.30;;;19.20;1.00;;;;;;5107606;28;20427;-52
2023/09/19 08:41:19;;;;;;;0.50;0.30;;;19.30;1.00;;;;;;5109763;28;20523;-52
2023/09/19 08:43:47;;;;;;;1.02;0.30;;;19.20;1.00;;;;;;5110545;28;20501;-53
2023/09/19 08:46:16;;;;;;;0.50;0.20;;;19.30;1.00;;;;;;5107875;28;20928;-52
2023/09/19 08:48:52;;;;;;;0.50;0.28;;;19.30;1.00;;;;;;5090531;28;20421;-51
2023/09/19 08:51:27;;;;;;;0.50;0.30;;;19.40;1.00;;;;;;5109618;28;20420;-55
2023/09/19 08:54:07;;;;;;;2.83;0.40;;;19.50;1.00;;;;;;5107317;28;20419;-54
2023/09/19 08:56:36;;;;;;;1.20;0.30;;;19.70;1.00;;;;;;5113443;28;20420;-53
2023/09/19 08:59:07;;;;;;;1.40;0.30;;;19.70;99.90;;;;;;5112600;28;20827;-53
2023/09/19 09:01:35;;;;;;;2.00;0.30;;;19.80;1.00;;;;;;5107551;28;20701;-52
2023/09/19 09:04:03;;;;;;;0.60;0.30;;;19.80;1.00;;;;;;5107654;28;20422;-53
2023/09/19 09:06:32;;;;;;;0.50;0.20;;;20.00;99.90;;;;;;5110419;28;20420;-52
2023/09/19 09:09:01;;;;;;;0.50;0.20;;;20.10;99.90;;;;;;5108511;28;20497;-52
2023/09/19 09:11:29;;;;;;;0.40;0.20;;;20.10;17.80;;;;;;5109634;28;20497;-51
2023/09/19 09:13:57;;;;;;;0.70;0.30;;;20.30;1.00;;;;;;5109955;28;20530;-50
2023/09/19 09:16:26;;;;;;;0.50;0.30;;;20.30;1.00;;;;;;5109869;28;20443;-53
2023/09/19 09:18:54;;;;;;;0.80;0.28;;;20.20;99.90;;;;;;5112027;28;20506;-52
2023/09/19 09:21:21;;;;;;;0.80;0.25;;;20.30;99.90;;;;;;5112177;28;20721;-53
2023/09/19 09:23:49;;;;;;;0.50;0.30;;;20.40;99.90;;;;;;5108489;28;20854;-51
2023/09/19 09:26:18;;;;;;;0.40;0.20;;;20.40;99.90;;;;;;5110147;28;20657;-52
2023/09/19 09:28:47;;;;;;;1.50;0.30;;;20.30;99.90;;;;;;5111063;28;20427;-53
2023/09/19 09:31:24;;;;;;;0.50;0.30;;;20.40;99.90;;;;;;5110409;28;20424;-49
2023/09/19 09:33:55;;;;;;;0.52;0.30;;;20.50;99.90;;;;;;5108737;28;20841;-54
2023/09/19 09:36:36;;;;;;;0.73;0.40;;;20.70;99.90;;;;;;5109266;28;20427;-54
2023/09/19 09:39:15;;;;;;;0.50;0.20;;;20.70;99.90;;;;;;5111499;28;20431;-54
2023/09/19 09:41:45;;;;;;;0.50;0.20;;;20.90;99.90;;;;;;5111000;28;20507;-56
2023/09/19 09:44:18;;;;;;;0.60;0.30;;;20.80;99.90;;;;;;5110736;28;20443;-51
2023/09/19 09:49:54;;;;;;;0.50;0.30;;;20.80;99.90;;;;;;5110727;28;20405;-51
2023/09/19 09:52:24;;;;;;;0.70;0.30;;;21.10;99.90;;;;;;5110552;28;20979;-54
2023/09/19 09:55:05;;;;;;;0.93;0.50;;;21.20;99.90;;;;;;5109338;28;20420;-54
2023/09/19 09:57:34;;;;;;;0.50;0.30;;;21.50;99.90;;;;;;5114244;28;20462;-54
2023/09/19 10:00:16;;;;;;;0.50;0.30;;;21.50;99.90;;;;;;5114772;28;20427;-53
2023/09/19 10:02:46;;;;;;;0.50;0.30;;;21.60;99.90;;;;;;5114220;28;20416;-55
2023/09/19 10:05:21;;;;;;;0.50;0.30;;;21.90;99.90;;;;;;5112741;28;20487;-54
2023/09/19 10:07:51;;;;;;;0.70;0.30;;;21.80;99.90;;;;;;5112009;28;20432;-57
2023/09/19 10:10:38;;;;;;;1.10;0.30;;;22.10;99.90;;;;;;5110287;28;20412;-58
2023/09/19 10:13:12;;;;;;;0.50;0.30;;;22.00;99.90;;;;;;5113670;28;20473;-57
2023/09/19 10:15:40;;;;;;;0.70;0.30;;;22.20;99.90;;;;;;5113081;28;20431;-57
2023/09/19 10:18:08;;;;;;;0.50;0.20;;;22.30;99.90;;;;;;5113251;28;20428;-58
2023/09/19 10:20:38;;;;;;;0.80;0.30;;;22.30;99.90;;;;;;5113638;28;20435;-53
2023/09/19 10:23:10;;;;;;;0.60;0.30;;;22.20;99.90;;;;;;5113163;28;20538;-58
2023/09/19 10:25:39;;;;;;;0.50;0.20;;;21.80;99.90;;;;;;5112293;28;20435;-57
2023/09/19 10:28:11;;;;;;;1.10;0.40;;;21.60;99.90;;;;;;5111407;28;20857;-57
2023/09/19 10:30:43;;;;;;;0.60;0.30;;;21.40;99.90;;;;;;5111485;28;20864;-58
2023/09/19 10:33:11;;;;;;;0.57;0.30;;;21.60;99.90;;;;;;5110144;28;20428;-57
2023/09/19 10:35:41;;;;;;;0.68;0.30;;;21.80;99.90;;;;;;5110551;28;20408;-58
2023/09/19 10:38:11;;;;;;;0.60;0.30;;;22.10;99.90;;;;;;5112099;28;20826;-58
2023/09/19 10:40:42;;;;;;;0.60;0.30;;;22.20;99.90;;;;;;5113335;28;20741;-58
2023/09/19 10:43:14;;;;;;;1.00;0.50;;;22.10;99.90;;;;;;5115044;28;20431;-58
2023/09/19 10:45:44;;;;;;;0.70;0.30;;;22.10;99.90;;;;;;5105994;28;20870;-57
2023/09/19 10:48:12;;;;;;;0.60;0.30;;;22.10;99.90;;;;;;5084679;28;20520;-58
2023/09/19 10:50:48;;;;;;;0.50;0.30;;;22.10;99.90;;;;;;5093825;28;20413;-58
2023/09/19 10:53:17;;;;;;;0.50;0.20;;;22.00;99.90;;;;;;5102383;28;20987;-59
2023/09/19 10:55:51;;;;;;;0.60;0.20;;;22.00;99.90;;;;;;5111600;28;20830;-59
2023/09/19 10:58:29;;;;;;;0.47;0.20;;;22.10;99.90;;;;;;5114035;28;20485;-59
2023/09/19 11:01:01;;;;;;;0.85;0.30;;;22.40;99.90;;;;;;5113585;28;20440;-59
2023/09/19 11:03:31;;;;;;;0.70;0.30;;;22.60;99.90;;;;;;5113632;28;20428;-59
2023/09/19 11:06:17;;;;;;;0.75;0.30;;;22.70;99.90;;;;;;5114119;28;20424;-59
2023/09/19 11:08:57;;;;;;;0.65;0.30;;;22.60;99.90;;;;;;5113875;28;20407;-59
2023/09/19 11:11:46;;;;;;;1.17;0.30;;;22.40;99.90;;;;;;5111684;28;20444;-59
2023/09/19 11:14:39;;;;;;;0.60;0.20;;;22.20;99.90;;;;;;5100147;28;20748;-60
2023/09/19 11:17:45;;;;;;;0.50;0.30;;;22.20;99.90;;;;;;5111483;28;20419;-60
2023/09/19 11:20:51;;;;;;;0.52;0.30;;;22.20;99.90;;;;;;5110594;28;20875;-59
2023/09/19 11:23:28;;;;;;;0.60;0.30;;;22.40;99.90;;;;;;5111336;28;20460;-60
2023/09/19 11:25:55;;;;;;;0.40;0.20;;;22.30;99.90;;;;;;5112379;28;20485;-60
2023/09/19 11:28:36;;;;;;;0.55;0.30;;;22.20;99.90;;;;;;5114052;28;20937;-60
2023/09/19 11:31:59;;;;;;;0.90;0.20;;;22.10;99.90;;;;;;5105912;28;20473;-60
2023/09/19 11:34:51;;;;;;;0.50;0.30;;;22.20;99.90;;;;;;5114022;28;20423;-60
2023/09/19 11:38:07;;;;;;;0.40;0.20;;;22.60;99.90;;;;;;5115604;28;20468;-61
2023/09/19 11:40:35;;;;;;;0.52;0.30;;;22.60;99.90;;;;;;5111558;27;20939;-58
2023/09/19 11:43:33;;;;;;;0.40;0.20;;;22.30;99.90;;;;;;5092093;28;20524;-58
2023/09/19 11:46:08;;;;;;;0.40;0.20;;;22.50;99.90;;;;;;5092283;28;20483;-57
2023/09/19 11:48:46;;;;;;;0.50;0.20;;;22.50;99.90;;;;;;5090861;28;20864;-58
2023/09/19 11:51:22;;;;;;;0.47;0.20;;;23.00;99.90;;;;;;5083666;28;20504;-59
2023/09/19 11:53:51;;;;;;;2.45;0.40;;;23.20;99.90;;;;;;5091180;28;20482;-60
2023/09/19 11:56:20;;;;;;;0.80;0.30;;;23.50;99.90;;;;;;5091850;28;20503;-59
2023/09/19 11:58:49;;;;;;;0.43;0.20;;;23.80;99.90;;;;;;5092792;28;20767;-60
2023/09/19 12:01:24;;;;;;;0.60;0.20;;;24.10;99.90;;;;;;5090966;28;20436;-59
2023/09/19 12:03:56;;;;;;;0.50;0.22;;;24.00;99.90;;;;;;5090558;28;20490;-58
2023/09/19 12:06:29;;;;;;;0.50;0.20;;;23.70;99.90;;;;;;5087434;28;20837;-59
2023/09/19 12:08:58;;;;;;;0.80;0.30;;;23.40;99.90;;;;;;5092087;28;20453;-59
2023/09/19 12:11:33;;;;;;;0.65;0.20;;;23.40;99.90;;;;;;5092018;28;20778;-58
2023/09/19 12:14:01;;;;;;;0.60;0.30;;;23.30;99.90;;;;;;5090687;28;20720;-59
2023/09/19 12:16:30;;;;;;;0.75;0.20;;;23.30;99.90;;;;;;5089564;28;20426;-59
2023/09/19 12:18:59;;;;;;;0.50;0.30;;;23.40;99.90;;;;;;5090270;28;20433;-59
2023/09/19 12:21:31;;;;;;;0.50;0.20;;;23.30;99.90;;;;;;5091336;28;20433;-58
2023/09/19 12:24:13;;;;;;;0.40;0.20;;;23.50;99.90;;;;;;5090597;28;20444;-59
2023/09/19 12:26:45;;;;;;;0.50;0.20;;;23.70;99.90;;;;;;5088361;28;20859;-59
2023/09/19 12:29:18;;;;;;;0.50;0.27;;;23.60;99.90;;;;;;5090736;28;20723;-59
2023/09/19 12:31:54;;;;;;;0.50;0.30;;;23.50;99.90;;;;;;5091384;28;20422;-59
2023/09/19 12:34:26;;;;;;;0.50;0.20;;;23.40;99.90;;;;;;5091121;28;20440;-59
2023/09/19 12:37:11;;;;;;;0.40;0.20;;;23.10;99.90;;;;;;5090968;28;20430;-60
2023/09/19 12:39:40;;;;;;;0.65;0.20;;;22.90;99.90;;;;;;5090216;28;20421;-59
2023/09/19 12:42:10;;;;;;;0.40;0.30;;;23.10;99.90;;;;;;5093891;28;20510;-59
2023/09/19 12:44:39;;;;;;;0.50;0.30;;;23.40;99.90;;;;;;5103898;28;20431;-58
2023/09/19 12:47:19;;;;;;;0.50;0.30;;;23.60;99.90;;;;;;5108928;28;20423;-59
2023/09/19 12:50:13;;;;;;;0.50;0.20;;;23.60;99.90;;;;;;5097890;28;20471;-59
2023/09/19 12:52:43;;;;;;;0.50;0.30;;;23.60;99.90;;;;;;5108912;28;20894;-58
2023/09/19 12:55:21;;;;;;;0.80;0.20;;;23.90;99.90;;;;;;5112108;28;20855;-59
2023/09/19 12:58:01;;;;;;;0.43;0.20;;;23.70;99.90;;;;;;5112501;28;20460;-58
2023/09/19 13:00:36;;;;;;;0.90;0.30;;;23.50;99.90;;;;;;5112763;28;20442;-59
2023/09/19 13:03:24;;;;;;;0.70;0.20;;;23.60;99.90;;;;;;5112903;28;20426;-59
2023/09/19 13:05:53;;;;;;;0.88;0.20;;;23.60;99.90;;;;;;5110493;28;20423;-59
2023/09/19 13:08:29;;;;;;;0.90;0.30;;;23.40;99.90;;;;;;5108177;28;20516;-59
2023/09/19 13:11:12;;;;;;;0.90;0.30;;;23.10;99.90;;;;;;5108986;28;20488;-58